Wilson Heron — 9HJW9 — position and weather

sailwx.info

Track history (hours):
 
Tides and Currents Weather Stations Pressure Air Temp Water Temp Dewpoint Dewpoint Depression Visibility Wind Speed Wind Dir Waves Ship Positions

Wilson Heron

Last reported at 2016-Jun-25 20:32 UTC. Time now 2016-Jun-25 21:30 UTC.
Position N 53°44' W 000°21'.

Length 91 m; draft 4.8 m.

Type: Cargo ship. MMSI: 249075000.

Date/timePositionNaut miles runAvg speedWind from/ knotsBaromVisibWave heightAir tempDewpointWater temp
2016-Jun-25 20:32N 53°44' W 000°21'0 0.0
2016-Jun-25 19:32N 53°44' W 000°21'0 0.0
2016-Jun-25 18:29N 53°44' W 000°21'0 0.0
2016-Jun-25 17:32N 53°44' W 000°21'0 0.0
2016-Jun-25 16:32N 53°44' W 000°21'0 0.0
2016-Jun-25 15:32N 53°44' W 000°21'0 0.0
2016-Jun-25 14:32N 53°44' W 000°21'0 0.0
2016-Jun-25 13:32N 53°44' W 000°21'0 0.0
2016-Jun-25 12:32N 53°44' W 000°21'0 0.0
2016-Jun-25 11:32N 53°44' W 000°21'0 0.0
2016-Jun-25 10:32N 53°44' W 000°21'0 0.0
2016-Jun-25 09:32N 53°44' W 000°21'0 0.0
2016-Jun-25 08:32N 53°44' W 000°21'0 0.0
2016-Jun-25 07:32N 53°44' W 000°21'0 0.0
2016-Jun-25 06:32N 53°44' W 000°21'0 0.0
2016-Jun-25 05:32N 53°44' W 000°21'0 0.0
2016-Jun-25 04:32N 53°44' W 000°21'0 0.0
2016-Jun-25 03:32N 53°44' W 000°21'0 0.0
2016-Jun-25 02:32N 53°44' W 000°21'0 0.0
2016-Jun-25 01:32N 53°44' W 000°21'0 0.0
2016-Jun-25 00:32N 53°44' W 000°21'0 0.0
2016-Jun-24 23:32N 53°44' W 000°21'0 0.0
2016-Jun-24 22:32N 53°44' W 000°21'0 0.0
2016-Jun-24 21:32N 53°44' W 000°21'0 0.0
2016-Jun-24 20:32N 53°44' W 000°21'0 0.0
2016-Jun-24 19:32N 53°44' W 000°21'0 0.0
2016-Jun-24 18:32N 53°44' W 000°21'0 0.0
2016-Jun-24 17:32N 53°44' W 000°21'0 0.0
2016-Jun-24 16:32N 53°44' W 000°21'0 0.0
2016-Jun-24 15:32N 53°44' W 000°21'0 0.0
2016-Jun-24 14:32N 53°44' W 000°21'0 0.0
2016-Jun-24 13:32N 53°44' W 000°21'0 0.0
2016-Jun-24 12:29N 53°44' W 000°21'0 0.0
2016-Jun-24 11:32N 53°44' W 000°21'0 0.0
2016-Jun-24 10:32N 53°44' W 000°21'0 0.0
2016-Jun-24 09:32N 53°44' W 000°21'0 0.0
2016-Jun-24 08:32N 53°44' W 000°21'0 0.0
2016-Jun-24 07:29N 53°44' W 000°21'0 0.0
2016-Jun-24 04:32N 53°44' W 000°21'0 0.0
2016-Jun-24 03:32N 53°44' W 000°21'0 0.0
2016-Jun-24 02:32N 53°44' W 000°21'0 0.0
2016-Jun-24 01:32N 53°44' W 000°21'0 0.0
2016-Jun-24 00:32N 53°44' W 000°21'0 0.0
2016-Jun-23 23:32N 53°44' W 000°21'0 0.0
2016-Jun-23 22:29N 53°44' W 000°21'0 0.0
2016-Jun-23 21:32N 53°44' W 000°21'0 0.0
2016-Jun-23 20:29N 53°44' W 000°21'0 0.2
2016-Jun-23 19:34N 53°44' W 000°20'7 6.6
2016-Jun-23 18:33N 53°40' W 000°12'1313.2
2016-Jun-23 17:33N 53°34' E 000°08'8 8.2
2016-Jun-23 16:33N 53°33' E 000°22'4 1.9
2016-Jun-23 14:27N 53°36' E 000°27'0 0.0
2016-Jun-23 13:30N 53°36' E 000°27'0 0.0
2016-Jun-23 12:31N 53°36' E 000°27'0 0.0
2016-Jun-23 11:27N 53°36' E 000°27'0 0.0
2016-Jun-23 10:27N 53°36' E 000°27'0 0.0
2016-Jun-23 09:33N 53°36' E 000°27'0 0.0
2016-Jun-23 07:18N 53°36' E 000°27'22 7.3
2016-Jun-23 04:19N 53°22' E 000°55'17 9.6
2016-Jun-23 02:33N 53°10' E 001°17'1111.5
2016-Jun-23 01:33N 53°02' E 001°29'1111.1
2016-Jun-23 00:33N 52°53' E 001°41'13 9.5
2016-Jun-22 23:13N 52°44' E 001°55'29 8.0
2016-Jun-22 19:33N 52°14' E 001°53'1010.3
2016-Jun-22 18:33N 52°04' E 001°51'1211.7
2016-Jun-22 17:33N 51°52' E 001°49'1211.8
2016-Jun-22 16:33N 51°41' E 001°49'1110.6
2016-Jun-22 15:33N 51°32' E 001°40'9 9.2
2016-Jun-22 14:33N 51°26' E 001°28'1111.0
2016-Jun-22 13:33N 51°29' E 001°11'1110.5
2016-Jun-22 12:33N 51°29' E 000°54'8 7.9
2016-Jun-22 11:33N 51°25' E 000°43'2 0.4
2016-Jun-22 05:29N 51°23' E 000°46'0 0.0
2016-Jun-21 22:29N 51°23' E 000°46'0 0.0
2016-Jun-21 11:06N 51°23' E 000°46'2 3.0
2016-Jun-21 10:33N 51°24' E 000°44'6 5.8
2016-Jun-21 09:33N 51°28' E 000°50'9 9.1
2016-Jun-21 08:33N 51°30' E 001°05'1111.2
2016-Jun-21 07:33N 51°28' E 001°22'4 2.0
2016-Jun-21 05:33N 51°25' E 001°25'0 0.0
2016-Jun-21 04:33N 51°25' E 001°25'0 0.0
2016-Jun-21 03:33N 51°25' E 001°25'0 0.0
2016-Jun-21 02:33N 51°25' E 001°25'0 0.0
2016-Jun-21 01:34N 51°25' E 001°25'0 0.1
2016-Jun-21 00:33N 51°25' E 001°25'0 0.0
2016-Jun-20 23:34N 51°25' E 001°25'0 0.0
2016-Jun-20 22:33N 51°25' E 001°25'0 0.0
2016-Jun-20 21:34N 51°25' E 001°25'0 0.0
2016-Jun-20 20:33N 51°25' E 001°25'0 0.2
2016-Jun-20 19:34N 51°25' E 001°25'0 0.0
2016-Jun-20 18:34N 51°25' E 001°26'0 0.0
2016-Jun-20 17:34N 51°25' E 001°26'0 0.0
2016-Jun-20 16:34N 51°25' E 001°26'0 0.0
2016-Jun-20 15:33N 51°25' E 001°26'6 6.2
2016-Jun-20 14:34N 51°22' E 001°34'1111.1
2016-Jun-20 13:34N 51°12' E 001°41'7 7.2
2016-Jun-20 12:34N 51°05' E 001°38'7410.6
2016-Jun-20 05:33N 50°20' E 000°03'10 9.6
2016-Jun-20 04:34N 50°18' W 000°11'103 9.9
2016-Jun-19 18:09N 50°11' W 002°52'711.7
2016-Jun-19 17:34N 50°10' W 003°02'1111.3
2016-Jun-19 16:33N 50°08' W 003°20'1110.8
2016-Jun-19 15:34N 50°05' W 003°36'1110.3
2016-Jun-19 14:31N 50°03' W 003°53'20 9.9
2016-Jun-19 12:31N 49°59' W 004°22'10 9.8
2016-Jun-19 11:31N 49°57' W 004°37'20 9.6
2016-Jun-19 09:26N 49°54' W 005°08'44 5.6
2016-Jun-19 01:31N 50°34' W 005°38'1010.0
2016-Jun-19 00:34N 50°40' W 005°26'1110.6
2016-Jun-18 23:33N 50°47' W 005°13'1111.1
2016-Jun-18 22:34N 50°54' W 004°60'1111.4
2016-Jun-18 21:34N 51°01' W 004°46'1212.4
2016-Jun-18 20:33N 51°09' W 004°31'1312.6
2016-Jun-18 19:33N 51°16' W 004°14'  
Track history (hours):
 
Tides and Currents Weather Stations Pressure Air Temp Water Temp Dewpoint Dewpoint Depression Visibility Wind Speed Wind Dir Waves Ship Positions

Wilson Heron

Last reported at 2016-Jun-25 20:32 UTC. Time now 2016-Jun-25 21:30 UTC.
Position N 53°44' W 000°21'.

Length 91 m; draft 4.8 m.

Type: Cargo ship. MMSI: 249075000.

Date/timePositionNaut miles runAvg speedWind from/ knotsBaromVisibWave heightAir tempDewpointWater temp
2016-Jun-25 20:32N 53°44' W 000°21'0 0.0
2016-Jun-25 19:32N 53°44' W 000°21'0 0.0
2016-Jun-25 18:29N 53°44' W 000°21'0 0.0
2016-Jun-25 17:32N 53°44' W 000°21'0 0.0
2016-Jun-25 16:32N 53°44' W 000°21'0 0.0
2016-Jun-25 15:32N 53°44' W 000°21'0 0.0
2016-Jun-25 14:32N 53°44' W 000°21'0 0.0
2016-Jun-25 13:32N 53°44' W 000°21'0 0.0
2016-Jun-25 12:32N 53°44' W 000°21'0 0.0
2016-Jun-25 11:32N 53°44' W 000°21'0 0.0
2016-Jun-25 10:32N 53°44' W 000°21'0 0.0
2016-Jun-25 09:32N 53°44' W 000°21'0 0.0
2016-Jun-25 08:32N 53°44' W 000°21'0 0.0
2016-Jun-25 07:32N 53°44' W 000°21'0 0.0
2016-Jun-25 06:32N 53°44' W 000°21'0 0.0
2016-Jun-25 05:32N 53°44' W 000°21'0 0.0
2016-Jun-25 04:32N 53°44' W 000°21'0 0.0
2016-Jun-25 03:32N 53°44' W 000°21'0 0.0
2016-Jun-25 02:32N 53°44' W 000°21'0 0.0
2016-Jun-25 01:32N 53°44' W 000°21'0 0.0
2016-Jun-25 00:32N 53°44' W 000°21'0 0.0
2016-Jun-24 23:32N 53°44' W 000°21'0 0.0
2016-Jun-24 22:32N 53°44' W 000°21'0 0.0
2016-Jun-24 21:32N 53°44' W 000°21'0 0.0
2016-Jun-24 20:32N 53°44' W 000°21'0 0.0
2016-Jun-24 19:32N 53°44' W 000°21'0 0.0
2016-Jun-24 18:32N 53°44' W 000°21'0 0.0
2016-Jun-24 17:32N 53°44' W 000°21'0 0.0
2016-Jun-24 16:32N 53°44' W 000°21'0 0.0
2016-Jun-24 15:32N 53°44' W 000°21'0 0.0
2016-Jun-24 14:32N 53°44' W 000°21'0 0.0
2016-Jun-24 13:32N 53°44' W 000°21'0 0.0
2016-Jun-24 12:29N 53°44' W 000°21'0 0.0
2016-Jun-24 11:32N 53°44' W 000°21'0 0.0
2016-Jun-24 10:32N 53°44' W 000°21'0 0.0
2016-Jun-24 09:32N 53°44' W 000°21'0 0.0
2016-Jun-24 08:32N 53°44' W 000°21'0 0.0
2016-Jun-24 07:29N 53°44' W 000°21'0 0.0
2016-Jun-24 04:32N 53°44' W 000°21'0 0.0
2016-Jun-24 03:32N 53°44' W 000°21'0 0.0
2016-Jun-24 02:32N 53°44' W 000°21'0 0.0
2016-Jun-24 01:32N 53°44' W 000°21'0 0.0
2016-Jun-24 00:32N 53°44' W 000°21'0 0.0
2016-Jun-23 23:32N 53°44' W 000°21'0 0.0
2016-Jun-23 22:29N 53°44' W 000°21'0 0.0
2016-Jun-23 21:32N 53°44' W 000°21'0 0.0
2016-Jun-23 20:29N 53°44' W 000°21'0 0.2
2016-Jun-23 19:34N 53°44' W 000°20'7 6.6
2016-Jun-23 18:33N 53°40' W 000°12'1313.2
2016-Jun-23 17:33N 53°34' E 000°08'8 8.2
2016-Jun-23 16:33N 53°33' E 000°22'4 1.9
2016-Jun-23 14:27N 53°36' E 000°27'0 0.0
2016-Jun-23 13:30N 53°36' E 000°27'0 0.0
2016-Jun-23 12:31N 53°36' E 000°27'0 0.0
2016-Jun-23 11:27N 53°36' E 000°27'0 0.0
2016-Jun-23 10:27N 53°36' E 000°27'0 0.0
2016-Jun-23 09:33N 53°36' E 000°27'0 0.0
2016-Jun-23 07:18N 53°36' E 000°27'22 7.3
2016-Jun-23 04:19N 53°22' E 000°55'17 9.6
2016-Jun-23 02:33N 53°10' E 001°17'1111.5
2016-Jun-23 01:33N 53°02' E 001°29'1111.1
2016-Jun-23 00:33N 52°53' E 001°41'13 9.5
2016-Jun-22 23:13N 52°44' E 001°55'29 8.0
2016-Jun-22 19:33N 52°14' E 001°53'1010.3
2016-Jun-22 18:33N 52°04' E 001°51'1211.7
2016-Jun-22 17:33N 51°52' E 001°49'1211.8
2016-Jun-22 16:33N 51°41' E 001°49'1110.6
2016-Jun-22 15:33N 51°32' E 001°40'9 9.2
2016-Jun-22 14:33N 51°26' E 001°28'1111.0
2016-Jun-22 13:33N 51°29' E 001°11'1110.5
2016-Jun-22 12:33N 51°29' E 000°54'8 7.9
2016-Jun-22 11:33N 51°25' E 000°43'2 0.4
2016-Jun-22 05:29N 51°23' E 000°46'0 0.0
2016-Jun-21 22:29N 51°23' E 000°46'0 0.0
2016-Jun-21 11:06N 51°23' E 000°46'2 3.0
2016-Jun-21 10:33N 51°24' E 000°44'6 5.8
2016-Jun-21 09:33N 51°28' E 000°50'9 9.1
2016-Jun-21 08:33N 51°30' E 001°05'1111.2
2016-Jun-21 07:33N 51°28' E 001°22'4 2.0
2016-Jun-21 05:33N 51°25' E 001°25'0 0.0
2016-Jun-21 04:33N 51°25' E 001°25'0 0.0
2016-Jun-21 03:33N 51°25' E 001°25'0 0.0
2016-Jun-21 02:33N 51°25' E 001°25'0 0.0
2016-Jun-21 01:34N 51°25' E 001°25'0 0.1
2016-Jun-21 00:33N 51°25' E 001°25'0 0.0
2016-Jun-20 23:34N 51°25' E 001°25'0 0.0
2016-Jun-20 22:33N 51°25' E 001°25'0 0.0
2016-Jun-20 21:34N 51°25' E 001°25'0 0.0
2016-Jun-20 20:33N 51°25' E 001°25'0 0.2
2016-Jun-20 19:34N 51°25' E 001°25'0 0.0
2016-Jun-20 18:34N 51°25' E 001°26'0 0.0
2016-Jun-20 17:34N 51°25' E 001°26'0 0.0
2016-Jun-20 16:34N 51°25' E 001°26'0 0.0
2016-Jun-20 15:33N 51°25' E 001°26'6 6.2
2016-Jun-20 14:34N 51°22' E 001°34'1111.1
2016-Jun-20 13:34N 51°12' E 001°41'7 7.2
2016-Jun-20 12:34N 51°05' E 001°38'7410.6
2016-Jun-20 05:33N 50°20' E 000°03'10 9.6
2016-Jun-20 04:34N 50°18' W 000°11'103 9.9
2016-Jun-19 18:09N 50°11' W 002°52'711.7
2016-Jun-19 17:34N 50°10' W 003°02'1111.3
2016-Jun-19 16:33N 50°08' W 003°20'1110.8
2016-Jun-19 15:34N 50°05' W 003°36'1110.3
2016-Jun-19 14:31N 50°03' W 003°53'20 9.9
2016-Jun-19 12:31N 49°59' W 004°22'10 9.8
2016-Jun-19 11:31N 49°57' W 004°37'20 9.6
2016-Jun-19 09:26N 49°54' W 005°08'44 5.6
2016-Jun-19 01:31N 50°34' W 005°38'1010.0
2016-Jun-19 00:34N 50°40' W 005°26'1110.6
2016-Jun-18 23:33N 50°47' W 005°13'1111.1
2016-Jun-18 22:34N 50°54' W 004°60'1111.4
2016-Jun-18 21:34N 51°01' W 004°46'1212.4
2016-Jun-18 20:33N 51°09' W 004°31'1312.6
2016-Jun-18 19:33N 51°16' W 004°14'  

Dump ship's entire track history